Time;durP1;ratioP1;P1;durP2;ratioP2;P2;SDS_P1;SDS_P2;PMS_P1;PMS_P2;Temp;Humidity;BMP_temperature;BMP_pressure;BME280_temperature;BME280_humidity;BME280_pressure;Samples;Min_cycle;Max_cycle;Signal;HPM_P1;HPM_P2
2023/03/20 00:00:09;;;;;;;;;;;;;;;;;;5023541;28;19922;-82
2023/03/20 00:02:56;;;;;;;;;;;;;;;;;;5022080;28;19921;-84
2023/03/20 00:05:42;;;;;;;;;;;;;;;;;;5018022;28;19920;-85
2023/03/20 00:08:30;;;;;;;;;;;;;;;;;;5011552;28;19922;-86
2023/03/20 00:11:17;;;;;;;;;;;;;;;;;;5023822;28;19925;-85
2023/03/20 00:14:07;;;;;;;;;;;;;;;;;;5023763;28;20731;-86
2023/03/20 00:16:54;;;;;;;;;;;;;;;;;;5023655;28;19928;-88
2023/03/20 00:19:40;;;;;;;;;;;;;;;;;;5026205;28;20395;-86
2023/03/20 00:22:28;;;;;;;;;;;;;;;;;;5022792;28;19932;-85
2023/03/20 00:25:15;;;;;;;;;;;;;;;;;;5023577;28;19936;-85
2023/03/20 00:28:01;;;;;;;;;;;;;;;;;;5023618;28;19940;-84
2023/03/20 00:30:48;;;;;;;;;;;;;;;;;;5013227;28;19929;-84
2023/03/20 00:33:37;;;;;;;;;;;;;;;;;;5014504;28;19936;-85
2023/03/20 00:36:23;;;;;;;;;;;;;;;;;;5021707;28;19920;-85
2023/03/20 00:39:10;;;;;;;;;;;;;;;;;;5005053;28;19924;-79
2023/03/20 00:41:56;;;;;;;;;;;;;;;;;;5021082;28;19928;-84
2023/03/20 00:44:42;;;;;;;;;;;;;;;;;;5023211;28;20308;-84
2023/03/20 00:47:29;;;;;;;;;;;;;;;;;;5025520;28;19923;-85
2023/03/20 00:50:16;;;;;;;;;;;;;;;;;;5023513;28;19925;-84
2023/03/20 00:53:02;;;;;;;;;;;;;;;;;;5015505;28;20269;-84
2023/03/20 00:55:49;;;;;;;;;;;;;;;;;;5002898;28;19917;-84
2023/03/20 00:58:35;;;;;;;;;;;;;;;;;;5013426;28;19947;-84
2023/03/20 01:01:22;;;;;;;;;;;;;;;;;;5017900;28;19921;-86
2023/03/20 01:04:08;;;;;;;;;;;;;;;;;;5026280;28;19937;-86
2023/03/20 01:06:55;;;;;;;;;;;;;;;;;;5024953;28;19928;-85
2023/03/20 01:09:41;;;;;;;;;;;;;;;;;;5020226;28;20372;-86
2023/03/20 01:12:28;;;;;;;;;;;;;;;;;;5023696;28;19936;-86
2023/03/20 01:15:14;;;;;;;;;;;;;;;;;;5011705;28;20324;-85
2023/03/20 01:18:01;;;;;;;;;;;;;;;;;;5012181;28;19921;-85
2023/03/20 01:20:47;;;;;;;;;;;;;;;;;;5030800;28;19925;-85
2023/03/20 01:23:34;;;;;;;;;;;;;;;;;;5009698;28;19929;-86
2023/03/20 01:26:21;;;;;;;;;;;;;;;;;;5026118;28;19923;-85
2023/03/20 01:29:08;;;;;;;;;;;;;;;;;;5026013;28;19913;-86
2023/03/20 01:31:54;;;;;;;;;;;;;;;;;;5025447;28;19925;-86
2023/03/20 01:34:41;;;;;;;;;;;;;;;;;;5026118;28;19921;-85
2023/03/20 01:37:27;;;;;;;;;;;;;;;;;;5025972;28;19917;-88
2023/03/20 01:40:14;;;;;;;;;;;;;;;;;;5012065;28;19917;-84
2023/03/20 01:43:02;;;;;;;;;;;;;;;;;;5024877;28;20650;-84
2023/03/20 01:45:48;;;;;;;;;;;;;;;;;;5026685;28;19924;-83
2023/03/20 01:48:36;;;;;;;;;;;;;;;;;;5020453;28;19925;-84
2023/03/20 01:51:23;;;;;;;;;;;;;;;;;;5026534;28;19925;-84
2023/03/20 01:54:09;;;;;;;;;;;;;;;;;;5026328;28;19940;-85
2023/03/20 01:56:56;;;;;;;;;;;;;;;;;;5023866;28;19921;-85
2023/03/20 01:59:42;;;;;;;;;;;;;;;;;;5012273;28;19917;-86
2023/03/20 02:02:29;;;;;;;;;;;;;;;;;;5024232;28;19921;-85
2023/03/20 02:05:15;;;;;;;;;;;;;;;;;;5036199;28;19924;-84
2023/03/20 02:08:02;;;;;;;;;;;;;;;;;;5020238;28;19917;-85
2023/03/20 02:10:49;;;;;;;;;;;;;;;;;;5013290;28;19924;-84
2023/03/20 02:13:35;;;;;;;;;;;;;;;;;;5023548;28;20391;-84
2023/03/20 02:16:22;;;;;;;;;;;;;;;;;;5010469;28;19917;-84
2023/03/20 02:19:08;;;;;;;;;;;;;;;;;;5030311;28;19936;-84
2023/03/20 02:21:55;;;;;;;;;;;;;;;;;;5024050;28;19917;-86
2023/03/20 02:24:41;;;;;;;;;;;;;;;;;;5007214;28;19929;-85
2023/03/20 02:27:28;;;;;;;;;;;;;;;;;;5032511;28;20475;-86
2023/03/20 02:30:14;;;;;;;;;;;;;;;;;;5025227;28;19932;-86
2023/03/20 02:33:00;;;;;;;;;;;;;;;;;;5023468;28;19925;-87
2023/03/20 02:35:47;;;;;;;;;;;;;;;;;;5006625;28;19922;-87
2023/03/20 02:38:33;;;;;;;;;;;;;;;;;;5027095;28;19917;-88
2023/03/20 02:41:20;;;;;;;;;;;;;;;;;;5025201;28;19939;-87
2023/03/20 02:44:06;;;;;;;;;;;;;;;;;;5025291;28;20276;-87
2023/03/20 02:46:53;;;;;;;;;;;;;;;;;;5016200;28;19928;-87
2023/03/20 02:49:39;;;;;;;;;;;;;;;;;;5031626;28;19924;-87
2023/03/20 02:52:26;;;;;;;;;;;;;;;;;;5030191;28;19928;-87
2023/03/20 02:55:12;;;;;;;;;;;;;;;;;;5011849;28;20431;-86
2023/03/20 02:57:59;;;;;;;;;;;;;;;;;;5010526;28;19917;-85
2023/03/20 03:00:46;;;;;;;;;;;;;;;;;;5024464;28;19913;-86
2023/03/20 03:03:33;;;;;;;;;;;;;;;;;;5006311;28;19929;-84
2023/03/20 03:06:20;;;;;;;;;;;;;;;;;;5010618;28;19929;-84
2023/03/20 03:09:06;;;;;;;;;;;;;;;;;;5021967;28;19917;-84
2023/03/20 03:11:53;;;;;;;;;;;;;;;;;;5024943;28;19952;-85
2023/03/20 03:14:39;;;;;;;;;;;;;;;;;;5017503;28;19917;-84
2023/03/20 03:17:26;;;;;;;;;;;;;;;;;;5009911;28;19921;-84
2023/03/20 03:20:12;;;;;;;;;;;;;;;;;;5024325;28;19913;-84
2023/03/20 03:22:59;;;;;;;;;;;;;;;;;;5022610;28;20377;-84
2023/03/20 03:25:45;;;;;;;;;;;;;;;;;;5009096;28;19917;-85
2023/03/20 03:28:36;;;;;;;;;;;;;;;;;;5024399;28;19921;-84
2023/03/20 03:31:23;;;;;;;;;;;;;;;;;;5021139;28;19929;-84
2023/03/20 03:34:09;;;;;;;;;;;;;;;;;;5020660;28;19959;-86
2023/03/20 03:36:56;;;;;;;;;;;;;;;;;;5023440;28;19927;-86
2023/03/20 03:39:43;;;;;;;;;;;;;;;;;;5015384;28;20292;-86
2023/03/20 03:42:30;;;;;;;;;;;;;;;;;;5017043;28;19927;-87
2023/03/20 03:45:16;;;;;;;;;;;;;;;;;;5025472;28;19917;-86
2023/03/20 03:48:03;;;;;;;;;;;;;;;;;;5009922;28;19924;-86
2023/03/20 03:50:49;;;;;;;;;;;;;;;;;;5023291;28;20500;-84
2023/03/20 03:53:36;;;;;;;;;;;;;;;;;;5009016;28;19923;-86
2023/03/20 03:56:22;;;;;;;;;;;;;;;;;;5026849;28;19953;-84
2023/03/20 03:59:09;;;;;;;;;;;;;;;;;;5016518;28;19917;-86
2023/03/20 04:01:55;;;;;;;;;;;;;;;;;;4998593;28;19918;-86
2023/03/20 04:04:42;;;;;;;;;;;;;;;;;;5021394;28;19913;-87
2023/03/20 04:07:28;;;;;;;;;;;;;;;;;;5025705;28;20293;-85
2023/03/20 04:10:15;;;;;;;;;;;;;;;;;;4999186;28;19931;-88
2023/03/20 04:13:01;;;;;;;;;;;;;;;;;;5024040;28;19921;-88
2023/03/20 04:15:48;;;;;;;;;;;;;;;;;;5024772;28;19914;-87
2023/03/20 04:18:34;;;;;;;;;;;;;;;;;;5019784;28;20307;-86
2023/03/20 04:21:21;;;;;;;;;;;;;;;;;;5023315;28;19923;-85
2023/03/20 04:24:07;;;;;;;;;;;;;;;;;;5013646;28;19963;-84
2023/03/20 04:26:54;;;;;;;;;;;;;;;;;;5001534;28;19920;-86
2023/03/20 04:29:40;;;;;;;;;;;;;;;;;;5017049;28;19921;-85
2023/03/20 04:32:27;;;;;;;;;;;;;;;;;;5023432;28;19929;-84
2023/03/20 04:35:13;;;;;;;;;;;;;;;;;;5024044;28;19936;-85
2023/03/20 04:37:59;;;;;;;;;;;;;;;;;;5016536;28;20384;-84
2023/03/20 04:40:46;;;;;;;;;;;;;;;;;;5017061;28;19921;-85
2023/03/20 04:43:33;;;;;;;;;;;;;;;;;;5010560;28;19917;-83
2023/03/20 04:46:19;;;;;;;;;;;;;;;;;;5021842;28;20397;-85
2023/03/20 04:49:06;;;;;;;;;;;;;;;;;;5013751;28;20389;-83
2023/03/20 04:51:52;;;;;;;;;;;;;;;;;;5022808;28;19970;-83
2023/03/20 04:54:39;;;;;;;;;;;;;;;;;;5008671;28;19921;-83
2023/03/20 04:57:25;;;;;;;;;;;;;;;;;;5022630;28;20296;-84
2023/03/20 05:00:12;;;;;;;;;;;;;;;;;;5023279;28;19924;-83
2023/03/20 05:02:59;;;;;;;;;;;;;;;;;;5008577;28;20466;-83
2023/03/20 05:05:45;;;;;;;;;;;;;;;;;;5009071;28;19933;-85
2023/03/20 05:08:31;;;;;;;;;;;;;;;;;;5008927;28;19924;-84
2023/03/20 05:11:18;;;;;;;;;;;;;;;;;;5021982;28;19925;-84
2023/03/20 05:14:05;;;;;;;;;;;;;;;;;;5017569;28;19917;-84
2023/03/20 05:16:52;;;;;;;;;;;;;;;;;;5022164;28;20293;-85
2023/03/20 05:19:38;;;;;;;;;;;;;;;;;;5009055;28;19921;-87
2023/03/20 05:22:25;;;;;;;;;;;;;;;;;;5021203;28;19917;-84
2023/03/20 05:25:11;;;;;;;;;;;;;;;;;;5007503;28;19936;-82
2023/03/20 05:27:58;;;;;;;;;;;;;;;;;;5021113;28;19913;-86
2023/03/20 05:30:44;;;;;;;;;;;;;;;;;;5023088;28;20304;-86
2023/03/20 05:33:30;;;;;;;;;;;;;;;;;;5027248;28;19925;-86
2023/03/20 05:36:17;;;;;;;;;;;;;;;;;;5025645;28;19921;-84
2023/03/20 05:39:03;;;;;;;;;;;;;;;;;;5021186;28;20293;-84
2023/03/20 05:41:50;;;;;;;;;;;;;;;;;;5025524;28;19932;-84
2023/03/20 05:44:36;;;;;;;;;;;;;;;;;;5025819;28;19921;-86
2023/03/20 05:47:23;;;;;;;;;;;;;;;;;;5018162;28;19921;-85
2023/03/20 05:50:09;;;;;;;;;;;;;;;;;;5022438;28;19929;-85
2023/03/20 05:52:56;;;;;;;;;;;;;;;;;;4999900;28;19925;-85
2023/03/20 05:55:43;;;;;;;;;;;;;;;;;;5021576;28;19917;-84
2023/03/20 05:58:30;;;;;;;;;;;;;;;;;;5019319;28;19922;-84
2023/03/20 06:01:20;;;;;;;;;;;;;;;;;;5005081;28;19928;-83
2023/03/20 06:04:07;;;;;;;;;;;;;;;;;;5025566;28;19913;-84
2023/03/20 06:06:53;;;;;;;;;;;;;;;;;;5023579;28;20389;-84
2023/03/20 06:09:40;;;;;;;;;;;;;;;;;;5023763;28;19927;-83
2023/03/20 06:12:26;;;;;;;;;;;;;;;;;;5024309;28;19964;-84
2023/03/20 06:15:13;;;;;;;;;;;;;;;;;;5026178;28;19917;-84
2023/03/20 06:17:59;;;;;;;;;;;;;;;;;;5026987;28;19936;-83
2023/03/20 06:20:46;;;;;;;;;;;;;;;;;;5019081;28;19913;-83
2023/03/20 06:23:32;;;;;;;;;;;;;;;;;;5025225;28;20352;-85
2023/03/20 06:26:19;;;;;;;;;;;;;;;;;;5017895;28;19932;-83
2023/03/20 06:29:05;;;;;;;;;;;;;;;;;;5019752;28;20380;-83
2023/03/20 06:31:52;;;;;;;;;;;;;;;;;;5026093;28;20187;-84
2023/03/20 06:34:38;;;;;;;;;;;;;;;;;;5024990;28;20329;-84
2023/03/20 06:37:25;;;;;;;;;;;;;;;;;;5023263;28;19928;-84
2023/03/20 06:40:11;;;;;;;;;;;;;;;;;;5009955;28;19917;-84
2023/03/20 06:42:58;;;;;;;;;;;;;;;;;;5023052;28;19921;-85
2023/03/20 06:45:47;;;;;;;;;;;;;;;;;;5006590;28;19921;-84
2023/03/20 06:48:33;;;;;;;;;;;;;;;;;;5004332;28;19921;-86
2023/03/20 06:51:20;;;;;;;;;;;;;;;;;;5025013;28;19931;-86
2023/03/20 06:54:06;;;;;;;;;;;;;;;;;;5027010;28;19921;-86
2023/03/20 06:56:53;;;;;;;;;;;;;;;;;;5024727;28;19929;-87
2023/03/20 06:59:39;;;;;;;;;;;;;;;;;;5015597;28;19944;-86
2023/03/20 07:02:26;;;;;;;;;;;;;;;;;;5022290;28;19925;-86
2023/03/20 07:05:13;;;;;;;;;;;;;;;;;;5018431;28;19921;-85
2023/03/20 07:08:00;;;;;;;;;;;;;;;;;;5026574;28;19921;-85
2023/03/20 07:10:47;;;;;;;;;;;;;;;;;;5012130;28;20059;-86
2023/03/20 07:13:33;;;;;;;;;;;;;;;;;;5023077;28;19917;-86
2023/03/20 07:16:20;;;;;;;;;;;;;;;;;;5023109;28;19917;-85
2023/03/20 07:19:07;;;;;;;;;;;;;;;;;;5015669;28;19943;-85
2023/03/20 07:21:53;;;;;;;;;;;;;;;;;;5026226;28;19927;-87
2023/03/20 07:24:40;;;;;;;;;;;;;;;;;;5002621;28;20020;-87
2023/03/20 07:27:26;;;;;;;;;;;;;;;;;;5024347;28;19923;-87
2023/03/20 07:30:13;;;;;;;;;;;;;;;;;;5021581;28;19928;-87
2023/03/20 07:32:59;;;;;;;;;;;;;;;;;;5025406;28;19924;-87
2023/03/20 07:35:46;;;;;;;;;;;;;;;;;;5004432;28;19921;-86
2023/03/20 07:38:32;;;;;;;;;;;;;;;;;;5024964;28;19928;-86
2023/03/20 07:41:19;;;;;;;;;;;;;;;;;;5014519;28;19917;-86
2023/03/20 07:44:07;;;;;;;;;;;;;;;;;;5026510;28;19921;-87
2023/03/20 07:46:53;;;;;;;;;;;;;;;;;;5011040;28;19924;-87
2023/03/20 07:49:40;;;;;;;;;;;;;;;;;;5018374;28;19927;-86
2023/03/20 07:52:26;;;;;;;;;;;;;;;;;;5009242;28;19925;-89
2023/03/20 07:55:13;;;;;;;;;;;;;;;;;;5019038;28;19921;-86
2023/03/20 07:57:59;;;;;;;;;;;;;;;;;;5013847;28;20428;-85
2023/03/20 08:00:46;;;;;;;;;;;;;;;;;;5022103;28;19924;-85
2023/03/20 08:03:32;;;;;;;;;;;;;;;;;;5006181;28;20449;-85
2023/03/20 08:06:19;;;;;;;;;;;;;;;;;;5023840;28;19913;-85
2023/03/20 08:09:06;;;;;;;;;;;;;;;;;;5026679;28;20401;-84
2023/03/20 08:11:52;;;;;;;;;;;;;;;;;;5024456;28;20328;-84
2023/03/20 08:14:39;;;;;;;;;;;;;;;;;;5012034;28;19921;-84
2023/03/20 08:17:25;;;;;;;;;;;;;;;;;;5011481;28;19920;-84
2023/03/20 08:20:13;;;;;;;;;;;;;;;;;;5013666;28;19927;-83
2023/03/20 08:22:59;;;;;;;;;;;;;;;;;;5017186;28;19921;-84
2023/03/20 08:25:46;;;;;;;;;;;;;;;;;;5018074;28;19925;-83
2023/03/20 08:28:32;;;;;;;;;;;;;;;;;;5005004;28;20288;-84
2023/03/20 08:31:19;;;;;;;;;;;;;;;;;;5004560;28;19936;-84
2023/03/20 08:34:05;;;;;;;;;;;;;;;;;;5024499;28;19927;-84
2023/03/20 08:36:52;;;;;;;;;;;;;;;;;;5001444;28;19912;-84
2023/03/20 08:39:38;;;;;;;;;;;;;;;;;;5022429;28;19921;-84
2023/03/20 08:42:25;;;;;;;;;;;;;;;;;;5019837;28;19921;-84
2023/03/20 08:45:11;;;;;;;;;;;;;;;;;;5024201;28;19924;-82
2023/03/20 08:47:58;;;;;;;;;;;;;;;;;;5028943;28;19920;-83
2023/03/20 08:50:44;;;;;;;;;;;;;;;;;;5022247;28;19921;-85
2023/03/20 08:53:30;;;;;;;;;;;;;;;;;;5022602;28;19925;-84
2023/03/20 08:56:17;;;;;;;;;;;;;;;;;;5022630;28;19917;-84
2023/03/20 08:59:03;;;;;;;;;;;;;;;;;;5023854;28;20015;-84
2023/03/20 09:01:50;;;;;;;;;;;;;;;;;;5011510;28;19917;-84
2023/03/20 09:04:37;;;;;;;;;;;;;;;;;;5023370;28;19928;-84
2023/03/20 09:07:23;;;;;;;;;;;;;;;;;;5023915;28;19928;-84
2023/03/20 09:10:10;;;;;;;;;;;;;;;;;;5027820;28;19921;-84
2023/03/20 09:12:56;;;;;;;;;;;;;;;;;;5030307;28;20494;-84
2023/03/20 09:15:42;;;;;;;;;;;;;;;;;;5024719;28;19917;-83
2023/03/20 09:18:29;;;;;;;;;;;;;;;;;;5026259;28;19913;-82
2023/03/20 09:21:15;;;;;;;;;;;;;;;;;;5028452;28;19944;-82
2023/03/20 09:24:02;;;;;;;;;;;;;;;;;;5029809;28;19936;-84
2023/03/20 09:26:48;;;;;;;;;;;;;;;;;;5026272;28;19921;-84
2023/03/20 09:29:35;;;;;;;;;;;;;;;;;;5022203;28;19928;-85
2023/03/20 09:32:21;;;;;;;;;;;;;;;;;;5024894;28;19929;-85
2023/03/20 09:35:08;;;;;;;;;;;;;;;;;;5025475;28;19923;-85
2023/03/20 09:37:55;;;;;;;;;;;;;;;;;;5027744;28;19918;-84
2023/03/20 09:40:41;;;;;;;;;;;;;;;;;;5025525;28;19928;-84
2023/03/20 09:43:28;;;;;;;;;;;;;;;;;;5021593;28;19921;-86
2023/03/20 09:46:14;;;;;;;;;;;;;;;;;;5002120;28;19928;-85
2023/03/20 09:49:01;;;;;;;;;;;;;;;;;;5012558;28;19928;-85
2023/03/20 09:51:48;;;;;;;;;;;;;;;;;;5008428;28;20659;-86
2023/03/20 09:54:35;;;;;;;;;;;;;;;;;;5011743;28;19928;-85
2023/03/20 09:57:21;;;;;;;;;;;;;;;;;;5025520;28;19931;-85
2023/03/20 10:00:09;;;;;;;;;;;;;;;;;;5027432;28;19940;-84
2023/03/20 10:02:55;;;;;;;;;;;;;;;;;;5027175;28;19924;-84
2023/03/20 10:05:42;;;;;;;;;;;;;;;;;;5010363;28;19921;-86
2023/03/20 10:08:28;;;;;;;;;;;;;;;;;;5026467;28;19913;-84
2023/03/20 10:11:15;;;;;;;;;;;;;;;;;;5016016;28;20735;-84
2023/03/20 10:14:01;;;;;;;;;;;;;;;;;;5021323;28;19932;-85
2023/03/20 10:16:48;;;;;;;;;;;;;;;;;;5026659;28;19921;-85
2023/03/20 10:19:34;;;;;;;;;;;;;;;;;;5015016;28;19935;-86
2023/03/20 10:22:24;;;;;;;;;;;;;;;;;;5015973;28;19913;-85
2023/03/20 10:25:10;;;;;;;;;;;;;;;;;;5016127;28;19936;-84
2023/03/20 10:27:56;;;;;;;;;;;;;;;;;;5025418;28;19917;-85
2023/03/20 10:30:43;;;;;;;;;;;;;;;;;;5030259;28;20312;-85
2023/03/20 10:33:30;;;;;;;;;;;;;;;;;;5013592;28;19935;-85
2023/03/20 10:36:16;;;;;;;;;;;;;;;;;;5007534;28;19921;-86
2023/03/20 10:39:03;;;;;;;;;;;;;;;;;;5025485;28;19932;-85
2023/03/20 10:41:49;;;;;;;;;;;;;;;;;;5016484;28;19932;-85
2023/03/20 10:44:36;;;;;;;;;;;;;;;;;;5022186;28;20620;-85
2023/03/20 10:47:22;;;;;;;;;;;;;;;;;;5025418;28;19917;-85
2023/03/20 10:50:09;;;;;;;;;;;;;;;;;;5024485;28;20581;-85
2023/03/20 10:52:55;;;;;;;;;;;;;;;;;;5016561;28;19935;-85
2023/03/20 10:55:42;;;;;;;;;;;;;;;;;;5010828;28;19921;-85
2023/03/20 10:58:28;;;;;;;;;;;;;;;;;;5009807;28;20384;-86
2023/03/20 11:01:15;;;;;;;;;;;;;;;;;;5023382;28;19921;-86
2023/03/20 11:04:01;;;;;;;;;;;;;;;;;;5010455;28;19920;-85
2023/03/20 11:06:48;;;;;;;;;;;;;;;;;;5022726;28;19928;-85
2023/03/20 11:09:35;;;;;;;;;;;;;;;;;;5021287;28;19940;-86
2023/03/20 11:12:21;;;;;;;;;;;;;;;;;;5014497;28;19931;-90
2023/03/20 11:15:08;;;;;;;;;;;;;;;;;;5022204;28;19945;-88
2023/03/20 11:17:54;;;;;;;;;;;;;;;;;;5015304;28;19932;-89
2023/03/20 11:20:41;;;;;;;;;;;;;;;;;;5010586;28;19921;-89
2023/03/20 11:23:29;;;;;;;;;;;;;;;;;;5023706;28;20407;-90
2023/03/20 11:26:15;;;;;;;;;;;;;;;;;;5011412;28;20016;-88
2023/03/20 11:29:02;;;;;;;;;;;;;;;;;;5020281;28;19921;-88
2023/03/20 11:31:48;;;;;;;;;;;;;;;;;;5024382;28;20031;-88
2023/03/20 11:34:35;;;;;;;;;;;;;;;;;;5027248;28;19921;-88
2023/03/20 11:37:21;;;;;;;;;;;;;;;;;;5015254;28;19927;-91
2023/03/20 11:40:08;;;;;;;;;;;;;;;;;;5025746;28;19917;-90
2023/03/20 11:42:54;;;;;;;;;;;;;;;;;;5023472;28;19921;-89
2023/03/20 11:45:41;;;;;;;;;;;;;;;;;;5024099;28;19921;-88
2023/03/20 11:48:27;;;;;;;;;;;;;;;;;;5024944;28;19955;-89
2023/03/20 11:51:14;;;;;;;;;;;;;;;;;;5026106;28;19921;-88
2023/03/20 11:54:00;;;;;;;;;;;;;;;;;;5028167;28;19921;-88
2023/03/20 11:56:47;;;;;;;;;;;;;;;;;;5010198;28;19917;-88
2023/03/20 11:59:34;;;;;;;;;;;;;;;;;;5008015;28;19917;-88
2023/03/20 12:02:20;;;;;;;;;;;;;;;;;;5007373;28;19921;-87
2023/03/20 12:05:07;;;;;;;;;;;;;;;;;;5022700;28;20636;-88
2023/03/20 12:07:56;;;;;;;;;;;;;;;;;;5029166;28;19924;-86
2023/03/20 12:10:43;;;;;;;;;;;;;;;;;;5016449;28;19950;-88
2023/03/20 12:13:30;;;;;;;;;;;;;;;;;;5012187;28;19925;-88
2023/03/20 12:16:16;;;;;;;;;;;;;;;;;;5023907;28;19921;-89
2023/03/20 12:19:03;;;;;;;;;;;;;;;;;;5024184;28;20313;-89
2023/03/20 12:21:49;;;;;;;;;;;;;;;;;;5023799;28;19921;-89
2023/03/20 12:24:36;;;;;;;;;;;;;;;;;;5019999;28;19936;-89
2023/03/20 12:27:22;;;;;;;;;;;;;;;;;;5024051;28;19917;-89
2023/03/20 12:30:09;;;;;;;;;;;;;;;;;;5022576;28;19920;-90
2023/03/20 12:32:55;;;;;;;;;;;;;;;;;;5024544;28;19929;-88
2023/03/20 12:35:43;;;;;;;;;;;;;;;;;;5010880;28;20097;-89
2023/03/20 12:38:29;;;;;;;;;;;;;;;;;;5024178;28;19921;-88
2023/03/20 12:41:16;;;;;;;;;;;;;;;;;;5027526;28;19931;-86
2023/03/20 12:44:02;;;;;;;;;;;;;;;;;;5029519;28;19927;-88
2023/03/20 12:46:49;;;;;;;;;;;;;;;;;;5030534;28;19921;-89
2023/03/20 12:49:35;;;;;;;;;;;;;;;;;;5023745;28;20395;-88
2023/03/20 12:52:22;;;;;;;;;;;;;;;;;;5024870;28;19935;-88
2023/03/20 12:55:08;;;;;;;;;;;;;;;;;;5031547;28;20380;-88
2023/03/20 12:57:55;;;;;;;;;;;;;;;;;;5010295;28;19917;-88
2023/03/20 13:00:44;;;;;;;;;;;;;;;;;;5027466;28;20383;-89
2023/03/20 13:03:31;;;;;;;;;;;;;;;;;;5026157;28;19925;-88
2023/03/20 13:06:17;;;;;;;;;;;;;;;;;;5027511;28;20276;-88
2023/03/20 13:09:04;;;;;;;;;;;;;;;;;;5014199;28;19932;-88
2023/03/20 13:11:50;;;;;;;;;;;;;;;;;;5026060;28;19928;-88
2023/03/20 13:14:37;;;;;;;;;;;;;;;;;;5029126;28;19917;-88
2023/03/20 13:17:23;;;;;;;;;;;;;;;;;;5027758;28;20338;-89
2023/03/20 13:20:10;;;;;;;;;;;;;;;;;;5025070;28;19927;-88
2023/03/20 13:22:56;;;;;;;;;;;;;;;;;;5029035;28;19922;-87
2023/03/20 13:25:44;;;;;;;;;;;;;;;;;;5017127;28;19932;-88
2023/03/20 13:28:30;;;;;;;;;;;;;;;;;;5030019;28;19921;-87
2023/03/20 13:31:17;;;;;;;;;;;;;;;;;;5008495;28;19924;-87
2023/03/20 13:34:03;;;;;;;;;;;;;;;;;;5020519;28;19921;-87
2023/03/20 13:36:50;;;;;;;;;;;;;;;;;;5019851;28;19923;-87
2023/03/20 13:39:37;;;;;;;;;;;;;;;;;;5033306;28;19928;-88
2023/03/20 13:42:23;;;;;;;;;;;;;;;;;;5030115;28;19917;-88
2023/03/20 13:45:10;;;;;;;;;;;;;;;;;;5025476;28;19925;-87
2023/03/20 13:47:57;;;;;;;;;;;;;;;;;;5025153;28;19921;-87
2023/03/20 13:50:43;;;;;;;;;;;;;;;;;;5029212;28;20550;-88
2023/03/20 13:53:30;;;;;;;;;;;;;;;;;;5024472;28;19960;-88
2023/03/20 13:56:16;;;;;;;;;;;;;;;;;;5023797;28;19928;-89
2023/03/20 13:59:02;;;;;;;;;;;;;;;;;;5020323;28;19921;-86
2023/03/20 14:01:49;;;;;;;;;;;;;;;;;;5024750;28;19921;-87
2023/03/20 14:04:36;;;;;;;;;;;;;;;;;;5023412;28;19913;-88
2023/03/20 14:07:22;;;;;;;;;;;;;;;;;;5026762;28;20412;-88
2023/03/20 14:10:09;;;;;;;;;;;;;;;;;;5010361;28;19921;-87
2023/03/20 14:12:55;;;;;;;;;;;;;;;;;;5023859;28;19952;-88
2023/03/20 14:15:42;;;;;;;;;;;;;;;;;;5027397;28;19944;-87
2023/03/20 14:18:28;;;;;;;;;;;;;;;;;;5024121;28;19918;-88
2023/03/20 14:21:15;;;;;;;;;;;;;;;;;;5023729;28;20308;-88
2023/03/20 14:24:01;;;;;;;;;;;;;;;;;;5012090;28;19929;-88
2023/03/20 14:26:48;;;;;;;;;;;;;;;;;;5026244;28;19932;-88
2023/03/20 14:29:34;;;;;;;;;;;;;;;;;;5025796;28;19925;-88
2023/03/20 14:32:21;;;;;;;;;;;;;;;;;;5025764;28;20289;-88
2023/03/20 14:35:07;;;;;;;;;;;;;;;;;;5026154;28;19921;-88
2023/03/20 14:37:54;;;;;;;;;;;;;;;;;;5024123;28;20351;-88
2023/03/20 14:40:40;;;;;;;;;;;;;;;;;;5030844;28;19932;-88
2023/03/20 14:43:27;;;;;;;;;;;;;;;;;;5024696;28;19943;-88
2023/03/20 14:46:13;;;;;;;;;;;;;;;;;;5021345;28;19928;-88
2023/03/20 14:49:00;;;;;;;;;;;;;;;;;;5020329;28;19939;-88
2023/03/20 14:51:47;;;;;;;;;;;;;;;;;;5010730;28;19933;-88
2023/03/20 14:54:33;;;;;;;;;;;;;;;;;;5019340;28;19920;-87
2023/03/20 14:57:19;;;;;;;;;;;;;;;;;;5025529;28;19921;-88
2023/03/20 15:00:09;;;;;;;;;;;;;;;;;;5024799;28;19924;-88
2023/03/20 15:02:55;;;;;;;;;;;;;;;;;;5025754;28;20432;-88
2023/03/20 15:05:42;;;;;;;;;;;;;;;;;;5013122;28;19926;-87
2023/03/20 15:08:28;;;;;;;;;;;;;;;;;;5016511;28;19913;-86
2023/03/20 15:11:15;;;;;;;;;;;;;;;;;;5007822;28;20023;-87
2023/03/20 15:14:01;;;;;;;;;;;;;;;;;;5013052;28;19932;-87
2023/03/20 15:16:49;;;;;;;;;;;;;;;;;;5021243;28;19917;-87
2023/03/20 15:19:37;;;;;;;;;;;;;;;;;;5009277;28;19928;-87
2023/03/20 15:22:23;;;;;;;;;;;;;;;;;;5023243;28;19917;-89
2023/03/20 15:25:10;;;;;;;;;;;;;;;;;;5002765;28;19933;-88
2023/03/20 15:27:56;;;;;;;;;;;;;;;;;;5004264;28;19940;-88
2023/03/20 16:13:27;;;;;;;;;;;;;;;;;;5514131;22;19936;-88
2023/03/20 16:16:13;;;;;;;;;;;;;;;;;;5007568;28;19922;-83
2023/03/20 16:19:00;;;;;;;;;;;;;;;;;;5026930;28;19925;-85
2023/03/20 16:21:49;;;;;;;;;;;;;;;;;;5021642;28;19928;-83
2023/03/20 16:24:36;;;;;;;;;;;;;;;;;;5019631;28;19917;-82
2023/03/20 16:27:23;;;;;;;;;;;;;;;;;;5024062;28;19917;-83
2023/03/20 16:30:09;;;;;;;;;;;;;;;;;;5026872;28;20286;-82
2023/03/20 16:32:56;;;;;;;;;;;;;;;;;;5017939;28;19925;-81
2023/03/20 16:35:42;;;;;;;;;;;;;;;;;;5022789;28;19917;-82
2023/03/20 16:38:29;;;;;;;;;;;;;;;;;;5016499;28;19921;-82
2023/03/20 16:41:15;;;;;;;;;;;;;;;;;;5024153;28;19921;-82
2023/03/20 16:44:02;;;;;;;;;;;;;;;;;;5019165;28;19921;-82
2023/03/20 16:46:48;;;;;;;;;;;;;;;;;;5017028;28;19928;-83
2023/03/20 16:49:35;;;;;;;;;;;;;;;;;;5016002;28;19933;-82
2023/03/20 16:52:21;;;;;;;;;;;;;;;;;;5024016;28;19929;-82
2023/03/20 16:55:08;;;;;;;;;;;;;;;;;;5024235;28;19921;-82
2023/03/20 16:57:54;;;;;;;;;;;;;;;;;;5026244;28;19920;-81
2023/03/20 17:00:41;;;;;;;;;;;;;;;;;;5018841;28;19941;-81
2023/03/20 17:03:27;;;;;;;;;;;;;;;;;;5018201;28;19923;-81
2023/03/20 17:06:16;;;;;;;;;;;;;;;;;;5018743;28;20023;-80
2023/03/20 17:09:02;;;;;;;;;;;;;;;;;;5013647;28;19927;-81
2023/03/20 17:11:49;;;;;;;;;;;;;;;;;;5021719;28;19928;-81
2023/03/20 17:14:36;;;;;;;;;;;;;;;;;;4997967;28;19940;-80
2023/03/20 17:17:23;;;;;;;;;;;;;;;;;;4999318;28;19931;-81
2023/03/20 17:20:10;;;;;;;;;;;;;;;;;;4990190;28;19918;-80
2023/03/20 17:22:56;;;;;;;;;;;;;;;;;;5007509;28;20778;-81
2023/03/20 17:25:43;;;;;;;;;;;;;;;;;;5002190;28;19921;-80
2023/03/20 17:28:29;;;;;;;;;;;;;;;;;;4997304;28;19924;-82
2023/03/20 17:31:16;;;;;;;;;;;;;;;;;;5005126;28;20312;-81
2023/03/20 17:34:02;;;;;;;;;;;;;;;;;;5010105;28;19930;-81
2023/03/20 17:36:49;;;;;;;;;;;;;;;;;;5013424;28;19936;-80
2023/03/20 17:39:35;;;;;;;;;;;;;;;;;;5011495;28;20012;-82
2023/03/20 17:42:25;;;;;;;;;;;;;;;;;;5019777;28;19924;-82
2023/03/20 17:45:11;;;;;;;;;;;;;;;;;;5000336;28;19925;-80
2023/03/20 17:47:58;;;;;;;;;;;;;;;;;;4997183;28;20300;-82
2023/03/20 17:50:44;;;;;;;;;;;;;;;;;;4999210;28;19921;-81
2023/03/20 17:53:31;;;;;;;;;;;;;;;;;;5001765;28;19941;-82
2023/03/20 17:56:17;;;;;;;;;;;;;;;;;;5005888;28;19921;-82
2023/03/20 17:59:05;;;;;;;;;;;;;;;;;;5004855;28;20414;-81
2023/03/20 18:01:52;;;;;;;;;;;;;;;;;;4985972;28;19932;-81
2023/03/20 18:04:38;;;;;;;;;;;;;;;;;;4988914;28;19939;-83
2023/03/20 18:07:24;;;;;;;;;;;;;;;;;;4974546;28;20513;-80
2023/03/20 18:10:11;;;;;;;;;;;;;;;;;;4989857;28;20009;-78
2023/03/20 18:12:57;;;;;;;;;;;;;;;;;;4999186;28;20292;-82
2023/03/20 18:15:46;;;;;;;;;;;;;;;;;;4997818;28;19924;-82
2023/03/20 18:18:32;;;;;;;;;;;;;;;;;;5001534;28;21309;-89
2023/03/20 18:21:19;;;;;;;;;;;;;;;;;;5005726;28;19925;-87
2023/03/20 18:24:05;;;;;;;;;;;;;;;;;;4994402;28;19917;-86
2023/03/20 18:26:52;;;;;;;;;;;;;;;;;;4996294;28;19917;-85
2023/03/20 18:29:38;;;;;;;;;;;;;;;;;;4992291;28;19925;-87
2023/03/20 18:32:25;;;;;;;;;;;;;;;;;;5004264;28;20472;-85
2023/03/20 18:35:11;;;;;;;;;;;;;;;;;;4998529;28;20028;-85
2023/03/20 18:37:58;;;;;;;;;;;;;;;;;;4988026;28;19913;-87
2023/03/20 18:40:46;;;;;;;;;;;;;;;;;;4998803;28;20025;-86
2023/03/20 18:43:32;;;;;;;;;;;;;;;;;;5003172;28;19922;-85
2023/03/20 18:46:19;;;;;;;;;;;;;;;;;;5000093;28;19926;-84
2023/03/20 18:49:05;;;;;;;;;;;;;;;;;;5005378;28;19924;-85
2023/03/20 18:51:52;;;;;;;;;;;;;;;;;;4989369;28;19925;-84
2023/03/20 18:54:39;;;;;;;;;;;;;;;;;;4985233;28;19918;-85
2023/03/20 18:57:26;;;;;;;;;;;;;;;;;;4987627;28;19932;-85
2023/03/20 19:00:12;;;;;;;;;;;;;;;;;;5004080;28;19922;-85
2023/03/20 19:02:59;;;;;;;;;;;;;;;;;;4999786;28;19945;-85
2023/03/20 19:05:45;;;;;;;;;;;;;;;;;;5000130;28;19929;-85
2023/03/20 19:08:37;;;;;;;;;;;;;;;;;;5007523;28;19924;-84
2023/03/20 19:11:23;;;;;;;;;;;;;;;;;;5000713;28;19922;-89
2023/03/20 19:14:10;;;;;;;;;;;;;;;;;;5005460;28;19936;-90
2023/03/20 19:16:56;;;;;;;;;;;;;;;;;;5007440;28;20551;-89
2023/03/20 19:19:43;;;;;;;;;;;;;;;;;;5008646;28;19918;-91
2023/03/20 19:22:29;;;;;;;;;;;;;;;;;;5007422;28;19949;-89
2023/03/20 19:25:16;;;;;;;;;;;;;;;;;;5012583;28;19945;-90
2023/03/20 19:28:02;;;;;;;;;;;;;;;;;;5016503;28;19918;-92
2023/03/20 19:30:49;;;;;;;;;;;;;;;;;;4998020;28;19923;-90
2023/03/20 19:33:35;;;;;;;;;;;;;;;;;;5009808;28;19929;-88
2023/03/20 19:36:22;;;;;;;;;;;;;;;;;;5006823;28;20462;-87
2023/03/20 19:39:09;;;;;;;;;;;;;;;;;;4996773;28;19929;-87